Flight Track Log - Related Links

Times and Time Zones

All times are in EDT time to prevent confusion due to time zone crossing. See the UAL395 flight status page for this flight to view local times or setup timezone preferences in your user account.

Time Position Orientation Groundspeed Altitude Reporting Facility
EDT Latitude Longitude Course Direction KTS MPH feet Rate Location/Type
Thu 08:25:48 AM 29.9639 -95.3433 276° West 156 180 700  Level Houston Center
Thu 08:26:25 AM 29.9381 -95.3367 167° South 175 201 1,700 1,773 Climbing Houston Center
Thu 08:27:16 AM 29.9256 -95.3769 250° West 229 264 3,300 2,411 Climbing Houston Center
Thu 08:28:17 AM 29.9533 -95.4747 288° West 270 311 6,200 2,927 Climbing Houston Center
Thu 08:29:00 AM 30.0350 -95.8197 276° West  Level FlightAware Approximate
Thu 08:29:19 AM 29.9708 -95.5603 283° West 275 316 9,300  Level Houston Center
Thu 08:30:00 AM 30.0452 -95.9421 276° West  Level FlightAware Approximate
Thu 08:30:21 AM 29.9894 -95.6536 283° West 294 338 11,100  Level Houston Center
Thu 08:31:00 AM 30.0677 -96.0613 276° West  Level FlightAware Approximate
Thu 08:31:22 AM 30.0114 -95.7636 283° West 347 399 13,500  Level Houston Center
Thu 08:32:24 AM 30.0336 -95.8719 283° West 350 403 16,300 2,516 Climbing Houston Center
Thu 08:33:26 AM 30.0550 -95.9839 282° West 358 412 18,700 2,244 Climbing Houston Center
Thu 08:34:27 AM 30.0778 -96.1022 283° West 364 419 20,900 2,000 Climbing Houston Center
Thu 08:35:29 AM 30.0947 -96.2186 280° West 369 425 22,800 1,854 Climbing Houston Center
Thu 08:36:30 AM 30.1169 -96.3614 280° West 379 436 24,700 1,561 Climbing Houston Center
Thu 08:37:32 AM 30.1322 -96.4694 279° West 386 444 26,000 1,548 Climbing Houston Center
Thu 08:38:34 AM 30.1550 -96.6161 280° West 394 453 27,900 1,415 Climbing Houston Center
Thu 08:39:35 AM 30.1783 -96.7422 282° West 397 457 28,900 1,073 Climbing Houston Center
Thu 08:40:37 AM 30.2111 -96.8692 287° West 406 467 30,100 1,415 Climbing Houston Center
Thu 08:41:38 AM 30.2428 -96.9975 286° West 409 471 31,800 1,561 Climbing Houston Center
Thu 08:42:40 AM 30.2733 -97.1208 286° West 397 457 33,300 1,065 Climbing Houston Center
Thu 08:43:42 AM 30.3039 -97.2408 286° West 386 444 34,000 339 Climbing Houston Center
Thu 08:44:44 AM 30.3336 -97.3611 286° West 384 442 34,000  Level Houston Center
Thu 08:45:45 AM 30.3639 -97.4828 286° West 385 443 34,000 195 Level Houston Center
Thu 08:46:47 AM 30.3939 -97.6036 286° West 386 444 34,400 823 Climbing Houston Center
Thu 08:47:49 AM 30.4239 -97.7250 286° West 386 444 35,700 780 Climbing Houston Center
Thu 08:48:50 AM 30.4525 -97.8436 286° West 381 438 36,000 146 Climbing Houston Center
Thu 08:49:52 AM 30.4808 -97.9589 286° West 371 427 36,000  Level Houston Center
Thu 08:50:54 AM 30.5089 -98.0769 285° West 374 430 36,000  Level Houston Center
Thu 08:51:56 AM 30.5428 -98.2156 286° West 378 435 36,000  Level Houston Center
Thu 08:52:57 AM 30.5711 -98.3344 285° West 379 436 36,000  Level Houston Center
Thu 08:53:59 AM 30.5992 -98.4536 285° West 379 436 36,000 48 Level Houston Center
Thu 08:55:01 AM 30.6278 -98.5717 286° West 377 434 36,100  Climbing Houston Center
Thu 08:56:03 AM 30.6553 -98.6889 285° West 373 429 36,000 -48 Descending Houston Center
Thu 08:57:05 AM 30.6839 -98.8064 286° West 375 432 36,000  Level Houston Center
Thu 08:58:06 AM 30.7106 -98.9247 285° West 376 433 36,000  Level Houston Center
Thu 08:59:08 AM 30.7394 -99.0425 286° West 375 432 36,000  Level Houston Center
Thu 09:00:10 AM 30.7667 -99.1617 285° West 377 434 36,000 -48 Level Houston Center
Thu 09:01:12 AM 30.7942 -99.2778 285° West 374 430 35,900  Descending Houston Center
Thu 09:02:14 AM 30.8269 -99.4186 285° West 377 434 36,000 49 Climbing Houston Center
Thu 09:03:15 AM 30.8503 -99.5308 284° West 358 412 36,000 -49 Level Houston Center
Thu 09:04:17 AM 30.8792 -99.6472 286° West 370 426 35,900  Descending Houston Center
Thu 09:05:19 AM 30.9078 -99.7689 285° West 385 443 36,000 48 Climbing Houston Center
Thu 09:06:21 AM 30.9333 -99.8847 284° West 375 432 36,000 919 Level Houston Center
Thu 09:07:23 AM 30.9592 -99.9967 285° West 365 420 37,900 968 Climbing Houston Center
Thu 09:08:25 AM 30.9867 -100.1239 284° West 345 397 38,000 49 Climbing Houston Center
Thu 09:09:26 AM 31.0114 -100.2342 285° West 351 404 38,000  Level Houston Center
Thu 09:10:28 AM 31.0350 -100.3425 284° West 349 402 38,000  Level Houston Center
Thu 09:11:30 AM 31.0639 -100.4517 287° West 352 405 38,000  Level Houston Center
Thu 09:12:32 AM 31.0872 -100.5631 284° West 354 407 38,000  Level Houston Center
Thu 09:13:34 AM 31.1106 -100.6742 284° West 351 404 38,000 -48 Level Houston Center
Thu 09:14:36 AM 31.1361 -100.8081 283° West 356 410 37,900 -69 Descending Houston Center
Thu 09:15:01 AM 31.1472 -100.8600 284° West 358 412 37,900  Level Fort Worth Center
Thu 09:15:38 AM 31.1600 -100.9197 284° West 360 414 37,900 61 Level Houston Center
Thu 09:16:40 AM 31.1839 -101.0300 284° West 359 413 38,000 48 Climbing Houston Center
Thu 09:17:42 AM 31.2064 -101.1458 283° West 367 422 38,000  Level Houston Center
Thu 09:18:44 AM 31.2675 -101.2428 306° West 377 434 38,000 -48 Level Houston Center
Thu 09:19:46 AM 31.3358 -101.3361 311° West 380 437 37,900 -48 Descending Houston Center
Thu 09:20:48 AM 31.4186 -101.4469 311° West 379 436 37,900 48 Level Houston Center
Thu 09:21:50 AM 31.4856 -101.5394 310° West 375 432 38,000  Climbing Houston Center
Thu 09:22:52 AM 31.5536 -101.6342 310° West 377 434 37,900 -48 Descending Houston Center
Thu 09:23:54 AM 31.6244 -101.7283 311° West 381 438 37,900 47 Level Houston Center
Thu 09:25:01 AM 31.7133 -101.8503 311° West 387 445 38,000 47 Climbing Fort Worth Center
Thu 09:26:01 AM 31.7789 -101.9392 311° West 393 452 38,000 -50 Level Fort Worth Center
Thu 09:27:01 AM 31.8486 -102.0353 311° West 393 452 37,900  Descending Fort Worth Center
Thu 09:28:01 AM 31.9200 -102.1344 310° West 393 452 38,000 50 Climbing Fort Worth Center
Thu 09:29:01 AM 31.9933 -102.2361 310° West 398 458 38,000  Level Fort Worth Center
Thu 09:30:01 AM 32.0628 -102.3331 310° West 398 458 38,000  Level Fort Worth Center
Thu 09:31:01 AM 32.1397 -102.4450 309° West 393 452 38,000  Level Fort Worth Center
Thu 09:32:01 AM 32.2086 -102.5422 310° West 398 458 38,000  Level Fort Worth Center
Thu 09:33:01 AM 32.2797 -102.6419 310° West 398 458 38,000  Level Fort Worth Center
Thu 09:34:01 AM 32.3506 -102.7419 310° West 398 458 38,000  Level Fort Worth Center
Thu 09:35:01 AM 32.4078 -102.8217 310° West 398 458 38,000  Level Fort Worth Center
Thu 09:36:01 AM 32.4886 -102.9322 311° West 398 458 38,000 50 Level Fort Worth Center
Thu 09:37:01 AM 32.5611 -103.0353 310° West 398 458 38,100  Climbing Fort Worth Center
Thu 09:39:17 AM 32.7314 -103.2767 310° West 413 475 38,000 -30 Descending Albuquerque Center
Thu 09:40:18 AM 32.8056 -103.3825 310° West 414 476 38,000  Level Albuquerque Center
Thu 09:41:19 AM 32.8789 -103.4881 310° West 415 478 38,000  Level Albuquerque Center
Thu 09:42:20 AM 32.9525 -103.5936 310° West 415 478 38,000  Level Albuquerque Center
Thu 09:43:22 AM 33.0328 -103.7061 310° West 417 480 38,000  Level Albuquerque Center
Thu 09:44:23 AM 33.1156 -103.8203 311° West 422 486 38,000  Level Albuquerque Center
Thu 09:45:24 AM 33.1889 -103.9275 309° West 419 482 38,000  Level Albuquerque Center
Thu 09:46:26 AM 33.2617 -104.0344 309° West 417 480 38,000  Level Albuquerque Center
Thu 09:47:27 AM 33.3400 -104.1492 309° West 414 476 38,000  Level Albuquerque Center
Thu 09:48:28 AM 33.4139 -104.2581 309° West 421 484 38,000  Level Albuquerque Center
Thu 09:49:29 AM 33.4872 -104.3669 309° West 423 487 38,000  Level Albuquerque Center
Thu 09:50:31 AM 33.5669 -104.4839 309° West 424 488 38,000  Level Albuquerque Center
Thu 09:51:32 AM 33.6411 -104.5933 309° West 424 488 38,000  Level Albuquerque Center
Thu 09:52:33 AM 33.7150 -104.7036 309° West 425 489 38,000  Level Albuquerque Center
Thu 09:53:34 AM 33.7897 -104.8136 309° West 426 490 38,000  Level Albuquerque Center
Thu 09:54:36 AM 33.8683 -104.9336 308° West 424 488 38,000  Level Albuquerque Center
Thu 09:55:37 AM 33.9444 -105.0422 310° West 426 490 38,000  Level Albuquerque Center
Thu 09:56:38 AM 34.0175 -105.1514 309° West 420 483 38,000  Level Albuquerque Center
Thu 09:57:40 AM 34.0964 -105.2692 309° West 426 490 38,000  Level Albuquerque Center
Thu 09:58:41 AM 34.1703 -105.3803 309° West 425 489 38,000  Level Albuquerque Center
Thu 09:59:42 AM 34.2444 -105.4928 309° West 423 487 38,000  Level Albuquerque Center
Thu 10:00:44 AM 34.3208 -105.6078 309° West 428 493 38,000  Level Albuquerque Center
Thu 10:01:45 AM 34.3764 -105.7336 298° West 422 486 38,000  Level Albuquerque Center
Thu 10:02:46 AM 34.4061 -105.8725 285° West 422 486 38,000  Level Albuquerque Center
Thu 10:03:48 AM 34.4314 -106.0125 282° West 421 484 38,000 49 Level Albuquerque Center
Thu 10:04:49 AM 34.4586 -106.1519 283° West 421 484 38,100  Climbing Albuquerque Center
Thu 10:05:51 AM 34.4822 -106.2797 283° West 421 484 38,000 -49 Descending Albuquerque Center
Thu 10:06:52 AM 34.5072 -106.4167 283° West 417 480 38,000  Level Albuquerque Center
Thu 10:07:54 AM 34.5394 -106.5794 284° West 414 476 38,000  Level Albuquerque Center
Thu 10:08:55 AM 34.5647 -106.7178 283° West 416 479 38,000  Level Albuquerque Center
Thu 10:09:57 AM 34.5900 -106.8550 283° West 416 479 38,000  Level Albuquerque Center
Thu 10:10:58 AM 34.6144 -106.9967 282° West 422 486 38,000  Level Albuquerque Center
Thu 10:12:00 AM 34.6408 -107.1361 283° West 421 484 38,000  Level Albuquerque Center
Thu 10:13:01 AM 34.6658 -107.2767 282° West 423 487 38,000  Level Albuquerque Center
Thu 10:14:03 AM 34.6928 -107.4242 283° West 420 483 38,000  Level Albuquerque Center
Thu 10:15:04 AM 34.7153 -107.5517 282° West 414 476 38,000  Level Albuquerque Center
Thu 10:16:06 AM 34.7400 -107.6875 283° West 412 474 38,000  Level Albuquerque Center
Thu 10:17:08 AM 34.7636 -107.8233 282° West 410 472 38,000  Level Albuquerque Center
Thu 10:18:09 AM 34.7922 -107.9869 282° West 412 474 38,000  Level Albuquerque Center
Thu 10:19:11 AM 34.8164 -108.1239 282° West 414 476 38,000  Level Albuquerque Center
Thu 10:20:13 AM 34.8400 -108.2625 282° West 416 479 38,000  Level Albuquerque Center
Thu 10:21:15 AM 34.8650 -108.4064 282° West 417 480 38,000  Level Albuquerque Center
Thu 10:22:16 AM 34.8883 -108.5400 282° West 420 483 38,000  Level Albuquerque Center
Thu 10:23:18 AM 34.9144 -108.6969 282° West 422 486 38,000  Level Albuquerque Center
Thu 10:24:20 AM 34.9383 -108.8342 282° West 427 491 38,000  Level Albuquerque Center
Thu 10:25:22 AM 34.9644 -108.9911 282° West 424 488 38,000  Level Albuquerque Center
Thu 10:26:24 AM 34.9867 -109.1261 281° West 424 488 38,000  Level Albuquerque Center
Thu 10:27:26 AM 35.0119 -109.2828 281° West 420 483 38,000  Level Albuquerque Center
Thu 10:28:28 AM 35.0336 -109.4175 281° West 420 483 38,000  Level Albuquerque Center
Thu 10:29:29 AM 35.0553 -109.5483 281° West 415 478 38,000  Level Albuquerque Center
Thu 10:30:31 AM 35.0794 -109.7056 281° West 417 480 38,000  Level Albuquerque Center
Thu 10:31:33 AM 35.1019 -109.8436 281° West 426 490 38,000  Level Albuquerque Center
Thu 10:32:35 AM 35.1278 -110.0008 281° West 425 489 38,000  Level Albuquerque Center
Thu 10:33:37 AM 35.1469 -110.1314 280° West 415 478 38,000  Level Albuquerque Center
Thu 10:34:39 AM 35.1686 -110.2844 280° West 411 473 38,000  Level Albuquerque Center
Thu 10:35:41 AM 35.1878 -110.4161 280° West 410 472 38,000  Level Albuquerque Center
Thu 10:36:43 AM 35.2075 -110.5492 280° West 413 475 38,000  Level Albuquerque Center
Thu 10:37:45 AM 35.2317 -110.7033 281° West 414 476 38,000  Level Albuquerque Center
Thu 10:38:47 AM 35.2511 -110.8372 280° West 416 479 38,000  Level Albuquerque Center
Thu 10:39:49 AM 35.2736 -110.9933 280° West 417 480 38,000  Level Albuquerque Center
Thu 10:40:51 AM 35.2953 -111.1311 281° West 432 497 38,000  Level Albuquerque Center
Thu 10:41:53 AM 35.3197 -111.2867 281° West 417 480 38,000  Level Albuquerque Center
Thu 10:42:55 AM 35.3372 -111.4200 279° West 415 478 38,000  Level Albuquerque Center
Thu 10:43:57 AM 35.3581 -111.5647 280° West 431 496 38,000 -968 Level Albuquerque Center
Thu 10:44:59 AM 35.3781 -111.7053 280° West 426 490 36,000 -2,419 Descending Albuquerque Center
Thu 10:46:01 AM 35.4019 -111.8733 280° West 421 484 33,000 -2,855 Descending Albuquerque Center
Thu 10:47:03 AM 35.4206 -112.0144 279° West 422 486 30,100 -1,452 Descending Albuquerque Center
Thu 10:48:05 AM 35.4408 -112.1564 280° West 425 489 30,000 -48 Descending Albuquerque Center
Thu 10:49:07 AM 35.4603 -112.2931 280° West 415 478 30,000  Level Albuquerque Center
Thu 10:50:09 AM 35.4786 -112.4297 279° West 411 473 30,000  Level Albuquerque Center
Thu 10:50:59 AM 35.4939 -112.5414 280° West 417 480 30,000  Level Los Angeles Center
Thu 10:52:01 AM 35.5144 -112.7003 279° West 418 481 30,000  Level Los Angeles Center
Thu 10:53:03 AM 35.5336 -112.8394 280° West 416 479 30,000  Level Los Angeles Center
Thu 10:54:05 AM 35.5519 -112.9789 279° West 413 475 30,000 -387 Level Los Angeles Center
Thu 10:55:07 AM 35.5744 -113.1447 280° West 410 472 29,200 -1,366 Descending Los Angeles Center
Thu 10:56:08 AM 35.5942 -113.2808 280° West 411 473 27,200 -2,049 Descending Los Angeles Center
Thu 10:57:10 AM 35.6094 -113.4242 278° West 418 481 25,000 -2,081 Descending Los Angeles Center
Thu 10:58:12 AM 35.6267 -113.5606 279° West 413 475 22,900 -1,680 Descending Los Angeles Center
Thu 10:59:15 AM 35.6414 -113.6672 280° West 405 466 21,500 -1,905 Descending Los Angeles Center
Thu 11:00:18 AM 35.6675 -113.8450 280° West 384 442 18,900 -2,081 Descending Los Angeles Center
Thu 11:01:19 AM 35.6850 -113.9678 280° West 372 428 17,200 -1,610 Descending Los Angeles Center
Thu 11:02:21 AM 35.7014 -114.0867 280° West 359 413 15,600 -1,597 Descending Los Angeles Center
Thu 11:03:23 AM 35.7181 -114.2067 280° West 342 394 13,900 -1,600 Descending Los Angeles Center
Thu 11:04:21 AM 35.7356 -114.3147 281° West 331 381 12,400 -1,008 Descending Los Angeles Center
Thu 11:05:22 AM 35.7739 -114.3972 300° West 299 344 11,900 -885 Descending Los Angeles Center
Thu 11:06:23 AM 35.8494 -114.4542 329° Northwest 301 346 10,600 -1,131 Descending Los Angeles Center
Thu 11:07:24 AM 35.9083 -114.5244 316° Northwest 295 339 9,600 -984 Descending Los Angeles Center
Thu 11:08:25 AM 35.9647 -114.5933 315° West 288 331 8,600 -738 Descending Los Angeles Center
Thu 11:09:26 AM 36.0186 -114.6603 315° West 279 321 8,100 -295 Descending Los Angeles Center
Thu 11:10:27 AM 36.0689 -114.7208 316° Northwest 237 273 8,000 -397 Descending Los Angeles Center
Thu 11:11:27 AM 36.0742 -114.8042 275° West 241 277 7,300 -1,033 Descending Los Angeles Center
Thu 11:12:29 AM 36.0744 -114.8839 270° West 237 273 5,900 -1,279 Descending Los Angeles Center
Thu 11:13:29 AM 36.0747 -114.9636 270° West 229 264 4,700 -1,140 Descending Los Angeles Center
Thu 11:14:30 AM 36.0736 -115.0281 269° West 178 205 3,600 -947 Descending Los Angeles Center
Thu 11:14:45 AM 36.0742 -115.0422 273° West 203 234 3,500 -400 Descending Los Angeles Center

Login

Don't have an account? Register now (free) for customized features, flight alerts, and more!